Time;durP1;ratioP1;P1;durP2;ratioP2;P2;SDS_P1;SDS_P2;PMS_P1;PMS_P2;Temp;Humidity;BMP_temperature;BMP_pressure;BME280_temperature;BME280_humidity;BME280_pressure;Samples;Min_cycle;Max_cycle;Signal;HPM_P1;HPM_P2
2021/04/04 00:01:33;;;;;;;9.10;5.70;;;3.10;46.20;;;;;;5018542;28;20480;-83
2021/04/04 00:03:59;;;;;;;10.03;5.47;;;3.20;46.00;;;;;;5029580;28;20488;-83
2021/04/04 00:06:27;;;;;;;14.50;5.10;;;3.30;45.80;;;;;;5023446;28;20515;-83
2021/04/04 00:08:53;;;;;;;9.70;5.10;;;3.40;45.70;;;;;;5019521;28;20469;-80
2021/04/04 00:11:19;;;;;;;7.20;4.57;;;3.50;45.60;;;;;;5021090;28;20484;-81
2021/04/04 00:13:46;;;;;;;8.70;4.80;;;3.50;45.60;;;;;;5030023;28;20448;-80
2021/04/04 00:16:12;;;;;;;7.80;5.60;;;3.60;45.60;;;;;;5015781;28;20451;-80
2021/04/04 00:18:41;;;;;;;8.30;5.43;;;3.70;45.50;;;;;;5017803;28;20538;-84
2021/04/04 00:21:07;;;;;;;6.30;4.80;;;3.80;45.40;;;;;;5017164;28;20455;-81
2021/04/04 00:23:35;;;;;;;7.63;5.17;;;3.80;45.20;;;;;;5019612;28;20506;-79
2021/04/04 00:26:01;;;;;;;7.37;4.20;;;3.80;45.10;;;;;;5010544;28;20465;-80
2021/04/04 00:28:29;;;;;;;6.50;4.30;;;3.90;44.90;;;;;;5015300;28;20576;-81
2021/04/04 00:30:55;;;;;;;7.80;4.37;;;3.90;44.80;;;;;;5019454;28;20540;-80
2021/04/04 00:33:22;;;;;;;6.50;4.73;;;3.90;44.70;;;;;;5017076;28;20475;-82
2021/04/04 00:35:48;;;;;;;4.47;4.03;;;3.90;44.60;;;;;;5024323;28;20462;-81
2021/04/04 00:38:15;;;;;;;4.23;3.83;;;3.90;45.30;;;;;;5014988;28;20487;-81
2021/04/04 00:40:43;;;;;;;6.60;4.30;;;3.80;45.00;;;;;;5014886;28;20560;-83
2021/04/04 00:43:09;;;;;;;5.37;4.10;;;3.90;44.90;;;;;;5017362;28;20434;-81
2021/04/04 00:45:38;;;;;;;7.40;4.50;;;3.90;44.90;;;;;;5022664;28;20809;-81
2021/04/04 00:48:06;;;;;;;5.03;4.53;;;3.90;44.80;;;;;;5016891;28;20525;-82
2021/04/04 00:50:35;;;;;;;7.43;4.53;;;3.90;44.80;;;;;;5013176;28;20534;-81
2021/04/04 00:53:03;;;;;;;6.10;5.00;;;4.00;45.20;;;;;;5016016;28;20555;-82
2021/04/04 00:55:29;;;;;;;8.03;4.80;;;3.90;45.20;;;;;;5019090;28;20467;-80
2021/04/04 00:57:57;;;;;;;5.60;4.33;;;4.00;45.40;;;;;;5007744;28;20448;-82
2021/04/04 01:00:26;;;;;;;12.13;4.43;;;4.00;45.30;;;;;;5011534;28;20883;-83
2021/04/04 01:02:54;;;;;;;8.50;5.10;;;4.00;45.30;;;;;;5012539;28;20963;-80
2021/04/04 01:05:25;;;;;;;6.10;4.50;;;4.00;45.10;;;;;;5015996;28;20464;-81
2021/04/04 01:07:56;;;;;;;6.97;4.80;;;4.00;45.30;;;;;;5014527;28;20460;-80
2021/04/04 01:10:24;;;;;;;8.43;5.37;;;3.90;45.10;;;;;;5015311;28;20471;-83
2021/04/04 01:12:56;;;;;;;10.10;5.00;;;4.00;45.20;;;;;;5016745;28;20451;-80
2021/04/04 01:15:29;;;;;;;7.30;5.47;;;4.00;45.10;;;;;;5020826;28;20513;-84
2021/04/04 01:17:58;;;;;;;5.80;4.77;;;3.90;45.10;;;;;;5030195;28;20448;-82
2021/04/04 01:20:29;;;;;;;8.00;5.47;;;3.90;45.50;;;;;;5016732;28;21580;-84
2021/04/04 01:23:13;;;;;;;8.57;5.50;;;3.80;45.20;;;;;;5009431;28;20458;-80
2021/04/04 01:25:49;;;;;;;10.00;5.50;;;3.80;45.40;;;;;;5010609;28;20472;-82
2021/04/04 01:28:20;;;;;;;6.23;5.50;;;3.70;45.50;;;;;;5024203;28;20482;-82
2021/04/04 01:30:48;;;;;;;10.73;5.70;;;3.70;45.80;;;;;;5020532;28;20457;-81
2021/04/04 01:33:18;;;;;;;11.33;5.17;;;3.60;45.80;;;;;;5015799;28;20534;-81
2021/04/04 01:35:48;;;;;;;7.70;5.20;;;3.60;45.80;;;;;;5016691;28;20452;-80
2021/04/04 01:38:17;;;;;;;10.17;6.20;;;3.60;46.20;;;;;;5024950;28;21058;-80
2021/04/04 01:40:47;;;;;;;11.33;6.20;;;3.60;46.00;;;;;;5017773;28;20446;-81
2021/04/04 01:43:17;;;;;;;9.70;6.33;;;3.60;46.60;;;;;;5024629;28;20533;-81
2021/04/04 01:45:44;;;;;;;7.87;5.60;;;3.50;46.70;;;;;;5012716;28;20479;-80
2021/04/04 01:48:13;;;;;;;10.77;5.93;;;3.50;47.00;;;;;;5021815;28;20543;-80
2021/04/04 01:50:41;;;;;;;7.90;5.50;;;3.40;47.10;;;;;;5009650;28;20492;-83
2021/04/04 01:53:09;;;;;;;8.73;6.10;;;3.30;47.20;;;;;;5014144;28;20448;-83
2021/04/04 01:55:37;;;;;;;6.30;5.67;;;3.30;47.40;;;;;;5012597;28;20598;-81
2021/04/04 01:58:05;;;;;;;6.30;4.80;;;3.30;47.60;;;;;;5024073;28;20481;-83
2021/04/04 02:00:32;;;;;;;12.73;5.10;;;3.20;47.50;;;;;;5017706;28;20467;-83
2021/04/04 02:03:01;;;;;;;8.23;4.70;;;3.10;47.50;;;;;;5029456;28;20516;-88
2021/04/04 02:05:28;;;;;;;7.47;5.50;;;3.10;47.40;;;;;;5037649;28;20512;-80
2021/04/04 02:07:55;;;;;;;11.30;5.10;;;3.00;47.40;;;;;;5015838;28;20537;-82
2021/04/04 02:10:24;;;;;;;11.20;5.10;;;3.00;47.40;;;;;;5020377;28;20534;-80
2021/04/04 02:12:52;;;;;;;8.93;5.47;;;2.90;47.40;;;;;;5026449;28;20526;-81
2021/04/04 02:15:20;;;;;;;6.67;5.03;;;2.90;47.40;;;;;;5035052;28;20506;-84
2021/04/04 02:17:49;;;;;;;9.60;6.07;;;2.80;47.80;;;;;;5038797;28;20448;-81
2021/04/04 02:20:17;;;;;;;8.70;5.83;;;2.80;47.70;;;;;;5024408;28;20483;-83
2021/04/04 02:22:44;;;;;;;7.87;6.00;;;2.80;47.80;;;;;;5012000;28;20539;-80
2021/04/04 02:25:12;;;;;;;8.17;6.17;;;2.70;47.70;;;;;;5021654;28;20892;-79
2021/04/04 02:27:40;;;;;;;12.13;5.93;;;2.60;47.70;;;;;;5012621;28;20576;-80
2021/04/04 02:30:08;;;;;;;9.80;5.70;;;2.70;48.00;;;;;;5025233;28;20828;-81
2021/04/04 02:32:38;;;;;;;6.80;5.80;;;2.70;48.10;;;;;;5015201;28;20454;-81
2021/04/04 02:35:07;;;;;;;8.90;5.33;;;2.70;48.00;;;;;;5018222;28;20455;-82
2021/04/04 02:37:37;;;;;;;6.43;5.20;;;2.70;48.10;;;;;;5019322;28;20491;-83
2021/04/04 02:40:07;;;;;;;6.43;5.20;;;2.80;48.20;;;;;;5021223;28;20443;-79
2021/04/04 02:42:36;;;;;;;9.03;6.20;;;2.90;48.20;;;;;;5030448;28;20513;-80
2021/04/04 02:45:04;;;;;;;7.83;4.53;;;2.90;48.10;;;;;;5027439;28;20487;-80
2021/04/04 02:47:35;;;;;;;8.00;5.60;;;2.90;48.20;;;;;;5025155;28;20495;-79
2021/04/04 02:50:02;;;;;;;6.30;5.50;;;2.90;48.30;;;;;;5021220;28;20467;-79
2021/04/04 02:52:32;;;;;;;8.30;6.07;;;2.90;48.30;;;;;;5027484;28;20517;-80
2021/04/04 02:55:00;;;;;;;6.90;5.20;;;2.80;48.10;;;;;;5024085;28;20453;-83
2021/04/04 02:57:29;;;;;;;9.07;6.13;;;2.80;48.20;;;;;;5014326;28;20476;-81
2021/04/04 03:00:01;;;;;;;8.50;4.90;;;2.70;48.20;;;;;;5023338;28;20447;-80
2021/04/04 03:02:29;;;;;;;9.00;5.37;;;2.60;48.40;;;;;;5008903;28;20536;-79
2021/04/04 03:04:57;;;;;;;8.73;4.87;;;2.60;48.60;;;;;;5017030;28;20455;-80
2021/04/04 03:07:25;;;;;;;5.83;5.20;;;2.50;48.80;;;;;;5020932;28;20475;-79
2021/04/04 03:09:54;;;;;;;10.70;6.20;;;2.50;49.00;;;;;;5010761;28;20469;-80
2021/04/04 03:12:22;;;;;;;9.13;6.13;;;2.40;49.10;;;;;;5021914;28;20455;-83
2021/04/04 03:14:50;;;;;;;8.93;5.40;;;2.30;49.10;;;;;;5015067;28;20466;-81
2021/04/04 03:17:18;;;;;;;6.83;5.50;;;2.30;49.30;;;;;;5017050;28;20909;-80
2021/04/04 03:19:46;;;;;;;8.63;6.27;;;2.20;49.50;;;;;;5003240;28;20579;-80
2021/04/04 03:22:13;;;;;;;10.73;5.40;;;2.10;49.70;;;;;;5005588;28;20449;-83
2021/04/04 03:24:41;;;;;;;8.90;6.50;;;2.00;50.00;;;;;;5009434;28;21120;-80
2021/04/04 03:27:09;;;;;;;7.20;5.47;;;2.00;50.50;;;;;;5008112;28;20450;-79
2021/04/04 03:29:36;;;;;;;7.27;5.40;;;1.90;50.70;;;;;;5010511;28;20490;-83
2021/04/04 03:32:03;;;;;;;7.50;5.10;;;1.90;50.90;;;;;;5015620;28;20957;-80
2021/04/04 03:34:30;;;;;;;8.80;5.83;;;1.80;51.00;;;;;;5014114;28;20542;-80
2021/04/04 03:36:57;;;;;;;8.83;5.93;;;1.60;51.40;;;;;;5010858;28;20469;-80
2021/04/04 03:39:25;;;;;;;8.87;5.00;;;1.40;51.60;;;;;;5019243;28;20546;-80
2021/04/04 03:41:52;;;;;;;6.77;5.23;;;1.30;52.10;;;;;;5011947;28;20452;-79
2021/04/04 03:44:21;;;;;;;9.13;5.93;;;1.30;52.80;;;;;;5024203;28;20451;-80
2021/04/04 03:46:50;;;;;;;8.60;5.97;;;1.30;53.20;;;;;;5006890;28;20460;-80
2021/04/04 03:49:17;;;;;;;8.33;5.40;;;1.20;53.40;;;;;;5005566;28;20472;-81
2021/04/04 03:51:44;;;;;;;7.20;5.23;;;1.00;53.50;;;;;;5015574;28;20466;-80
2021/04/04 03:54:12;;;;;;;7.13;5.73;;;1.10;54.50;;;;;;5015010;28;21022;-79
2021/04/04 03:56:45;;;;;;;5.70;5.13;;;1.00;54.70;;;;;;5011848;28;20444;-80
2021/04/04 03:59:13;;;;;;;6.90;5.63;;;1.00;55.10;;;;;;5016630;28;20467;-79
2021/04/04 04:01:44;;;;;;;11.07;5.60;;;0.90;55.40;;;;;;5005979;28;21129;-78
2021/04/04 04:04:13;;;;;;;8.50;5.80;;;0.90;55.70;;;;;;5009807;28;20457;-81
2021/04/04 04:06:41;;;;;;;8.80;6.00;;;0.80;56.20;;;;;;5007941;28;20479;-80
2021/04/04 04:09:09;;;;;;;7.83;5.43;;;0.90;57.10;;;;;;5022373;28;20482;-81
2021/04/04 04:11:38;;;;;;;8.00;5.43;;;0.90;57.00;;;;;;5025450;28;20448;-81
2021/04/04 04:14:05;;;;;;;7.77;5.90;;;0.70;57.30;;;;;;5019446;28;20531;-79
2021/04/04 04:16:35;;;;;;;7.10;5.83;;;0.60;57.80;;;;;;5016050;28;20440;-81
2021/04/04 04:19:03;;;;;;;7.10;5.73;;;0.60;59.00;;;;;;5017971;28;20536;-81
2021/04/04 04:21:31;;;;;;;8.10;6.00;;;0.60;58.90;;;;;;5027479;28;20451;-79
2021/04/04 04:23:59;;;;;;;7.90;5.77;;;0.60;59.30;;;;;;5017336;28;20614;-78
2021/04/04 04:26:26;;;;;;;8.63;5.90;;;0.60;59.60;;;;;;5014895;28;20449;-79
2021/04/04 04:28:52;;;;;;;6.73;5.70;;;0.70;60.50;;;;;;5026064;28;20476;-79
2021/04/04 04:31:22;;;;;;;6.73;5.57;;;0.40;60.70;;;;;;5019817;28;20551;-80
2021/04/04 04:33:53;;;;;;;10.33;6.17;;;0.40;61.50;;;;;;5014949;28;20459;-80
2021/04/04 04:36:22;;;;;;;7.63;6.60;;;0.40;61.50;;;;;;5007425;28;21066;-79
2021/04/04 04:38:50;;;;;;;10.23;6.33;;;0.40;62.00;;;;;;5009719;28;20626;-81
2021/04/04 04:41:18;;;;;;;10.97;6.30;;;0.40;62.60;;;;;;5005665;28;20551;-80
2021/04/04 04:43:49;;;;;;;8.70;6.20;;;0.40;63.10;;;;;;5011862;28;20452;-81
2021/04/04 04:46:17;;;;;;;9.60;6.80;;;0.50;63.30;;;;;;5014559;28;20441;-80
2021/04/04 04:48:44;;;;;;;9.80;6.17;;;0.40;63.40;;;;;;5008694;28;20521;-83
2021/04/04 04:51:11;;;;;;;9.03;6.47;;;0.50;63.60;;;;;;5020074;28;20450;-81
2021/04/04 04:53:39;;;;;;;10.53;6.77;;;0.50;63.60;;;;;;5011263;28;20448;-81
2021/04/04 04:56:06;;;;;;;12.40;6.77;;;0.60;63.40;;;;;;5016022;28;20474;-82
2021/04/04 04:58:35;;;;;;;10.20;6.40;;;0.50;63.80;;;;;;5001167;28;20971;-79
2021/04/04 05:01:03;;;;;;;9.80;6.30;;;0.60;63.90;;;;;;5007598;28;20899;-79
2021/04/04 05:03:30;;;;;;;8.97;6.40;;;0.60;64.10;;;;;;5016037;28;20496;-79
2021/04/04 05:06:01;;;;;;;11.13;6.37;;;0.70;63.80;;;;;;5012810;28;20932;-79
2021/04/04 05:08:28;;;;;;;11.83;6.20;;;0.70;64.10;;;;;;5009880;28;20470;-87
2021/04/04 05:10:57;;;;;;;9.30;6.37;;;0.80;63.70;;;;;;5017830;28;20495;-81
2021/04/04 05:13:24;;;;;;;14.67;7.30;;;0.70;63.70;;;;;;5011824;28;20446;-79
2021/04/04 05:15:53;;;;;;;10.17;6.90;;;1.00;63.80;;;;;;5019422;28;20463;-81
2021/04/04 05:18:19;;;;;;;9.53;6.90;;;0.90;63.30;;;;;;5019778;28;20512;-81
2021/04/04 05:20:46;;;;;;;10.23;6.07;;;1.00;63.30;;;;;;5020387;28;20542;-80
2021/04/04 05:23:19;;;;;;;8.77;6.17;;;0.90;63.60;;;;;;5006494;28;20450;-81
2021/04/04 05:25:46;;;;;;;8.87;6.47;;;0.90;63.70;;;;;;5025613;28;20455;-80
2021/04/04 05:28:13;;;;;;;11.70;6.13;;;1.10;63.80;;;;;;5026182;28;20480;-78
2021/04/04 05:30:39;;;;;;;7.33;5.90;;;1.10;64.10;;;;;;5009989;28;20487;-80
2021/04/04 05:33:06;;;;;;;8.83;5.80;;;1.20;64.00;;;;;;5013597;28;20452;-80
2021/04/04 05:35:38;;;;;;;12.50;6.27;;;1.40;63.30;;;;;;5009234;28;21019;-81
2021/04/04 05:38:05;;;;;;;9.43;6.70;;;1.50;63.00;;;;;;5011595;28;20483;-80
2021/04/04 05:40:32;;;;;;;8.67;7.23;;;1.60;62.40;;;;;;5018828;28;20524;-81
2021/04/04 05:43:00;;;;;;;8.90;6.47;;;1.60;62.10;;;;;;5014573;28;20560;-80
2021/04/04 05:45:35;;;;;;;11.30;6.83;;;1.70;61.00;;;;;;5010126;28;20484;-79
2021/04/04 05:48:14;;;;;;;8.90;6.70;;;1.70;60.70;;;;;;5011329;28;20480;-86
2021/04/04 05:50:50;;;;;;;9.73;7.17;;;1.70;60.50;;;;;;5016725;28;20482;-80
2021/04/04 05:53:23;;;;;;;9.30;6.20;;;1.70;60.10;;;;;;5010586;28;20448;-80
2021/04/04 05:55:56;;;;;;;8.30;6.10;;;1.70;60.00;;;;;;5020291;28;20471;-80
2021/04/04 05:58:26;;;;;;;8.53;5.80;;;1.60;59.70;;;;;;5023378;28;20456;-79
2021/04/04 06:00:57;;;;;;;10.43;6.83;;;1.60;60.10;;;;;;5015468;28;20551;-83
2021/04/04 06:03:56;;;;;;;8.97;7.30;;;1.60;59.60;;;;;;5025378;28;20943;-80
2021/04/04 06:06:46;;;;;;;9.73;6.40;;;1.80;59.40;;;;;;5017519;28;20523;-81
2021/04/04 06:09:39;;;;;;;11.47;7.30;;;1.80;59.10;;;;;;5005236;28;20468;-79
2021/04/04 06:12:17;;;;;;;8.73;6.63;;;2.00;59.30;;;;;;5012348;28;20460;-81
2021/04/04 06:15:00;;;;;;;13.70;7.20;;;2.20;59.20;;;;;;5001381;28;20447;-79
2021/04/04 06:17:34;;;;;;;12.07;7.30;;;2.40;58.60;;;;;;5013069;28;21008;-79
2021/04/04 06:20:12;;;;;;;7.63;6.70;;;2.50;57.80;;;;;;5007224;28;20452;-81
2021/04/04 06:22:45;;;;;;;10.47;7.00;;;2.60;57.40;;;;;;5014229;28;21214;-80
2021/04/04 06:25:22;;;;;;;9.80;7.00;;;2.80;57.10;;;;;;5018962;28;20450;-81
2021/04/04 06:27:56;;;;;;;10.30;7.10;;;2.90;56.50;;;;;;5019178;28;20553;-79
2021/04/04 06:33:11;;;;;;;10.20;6.50;;;3.10;55.80;;;;;;5008012;28;20457;-82
2021/04/04 06:35:43;;;;;;;8.73;6.57;;;3.00;55.30;;;;;;5016177;28;20479;-79
2021/04/04 06:38:29;;;;;;;9.90;6.67;;;3.20;55.40;;;;;;5006341;28;20503;-80
2021/04/04 06:41:04;;;;;;;7.70;6.07;;;3.30;55.10;;;;;;5009104;28;20476;-80
2021/04/04 06:43:40;;;;;;;9.23;6.00;;;3.50;54.70;;;;;;5007806;28;21046;-79
2021/04/04 06:46:21;;;;;;;10.90;7.70;;;3.60;54.20;;;;;;5012323;28;20896;-81
2021/04/04 06:49:00;;;;;;;11.23;7.43;;;3.70;53.90;;;;;;5013945;28;20544;-80
2021/04/04 06:51:44;;;;;;;9.83;7.50;;;3.70;53.60;;;;;;5015033;28;20544;-79
2021/04/04 06:54:20;;;;;;;9.25;7.90;;;3.80;53.20;;;;;;5012974;28;20454;-79
2021/04/04 06:57:07;;;;;;;13.83;8.60;;;3.90;53.10;;;;;;5008710;28;20646;-79
2021/04/04 06:59:49;;;;;;;18.13;7.97;;;4.10;53.10;;;;;;5023617;28;20534;-80
2021/04/04 07:02:20;;;;;;;10.93;7.40;;;4.00;52.80;;;;;;5020402;28;20449;-80
2021/04/04 07:04:54;;;;;;;13.50;7.93;;;4.10;52.90;;;;;;5016524;28;20500;-81
2021/04/04 07:07:56;;;;;;;11.13;7.77;;;3.90;52.20;;;;;;5019073;28;20521;-81
2021/04/04 07:10:34;;;;;;;11.30;8.50;;;3.90;52.60;;;;;;5019072;28;20476;-80
2021/04/04 07:13:27;;;;;;;11.27;7.80;;;4.30;52.50;;;;;;5024501;28;20519;-80
2021/04/04 07:16:24;;;;;;;8.87;7.40;;;4.50;52.40;;;;;;5006344;28;20491;-79
2021/04/04 07:19:25;;;;;;;12.33;7.53;;;4.40;51.60;;;;;;5010379;28;20974;-80
2021/04/04 07:22:12;;;;;;;10.70;7.90;;;4.60;51.70;;;;;;5013854;28;20532;-80
2021/04/04 07:24:54;;;;;;;10.80;7.70;;;4.60;51.40;;;;;;5015852;28;20511;-80
2021/04/04 07:27:32;;;;;;;8.20;7.17;;;4.60;51.10;;;;;;5010027;28;20797;-81
2021/04/04 07:30:28;;;;;;;13.43;8.13;;;4.80;51.10;;;;;;5008027;28;20472;-82
2021/04/04 07:32:55;;;;;;;8.90;7.93;;;5.10;50.80;;;;;;5007913;28;20822;-79
2021/04/04 07:35:24;;;;;;;9.63;7.27;;;5.10;50.60;;;;;;5012579;28;20457;-81
2021/04/04 07:37:54;;;;;;;7.23;6.50;;;5.20;50.50;;;;;;5013572;28;20478;-80
2021/04/04 07:40:26;;;;;;;12.93;7.67;;;5.50;50.40;;;;;;5020147;28;20504;-80
2021/04/04 07:43:12;;;;;;;9.80;7.40;;;5.50;50.20;;;;;;5014780;28;21938;-81
2021/04/04 07:45:46;;;;;;;12.53;7.90;;;5.50;50.20;;;;;;5025450;28;20447;-81
2021/04/04 07:48:22;;;;;;;8.47;6.50;;;5.50;50.00;;;;;;5022762;28;20561;-80
2021/04/04 07:50:57;;;;;;;10.50;7.30;;;5.70;49.70;;;;;;5013007;28;20495;-81
2021/04/04 07:53:39;;;;;;;11.33;7.03;;;5.60;49.70;;;;;;5016112;28;20490;-81
2021/04/04 07:56:15;;;;;;;9.97;7.60;;;5.80;49.70;;;;;;5015514;28;20542;-82
2021/04/04 07:58:47;;;;;;;13.70;7.20;;;5.70;49.10;;;;;;5012043;28;20492;-81
2021/04/04 08:01:17;;;;;;;7.77;6.20;;;6.20;48.70;;;;;;5015648;28;20784;-80
2021/04/04 08:03:49;;;;;;;7.13;6.07;;;6.10;48.30;;;;;;5018433;28;20923;-84
2021/04/04 08:06:18;;;;;;;9.33;6.27;;;6.10;48.00;;;;;;5018403;28;20492;-82
2021/04/04 08:08:55;;;;;;;10.77;6.90;;;6.30;48.00;;;;;;5019085;28;20481;-80
2021/04/04 08:11:26;;;;;;;10.00;6.47;;;6.50;48.00;;;;;;5018052;28;20453;-81
2021/04/04 08:14:01;;;;;;;9.10;7.07;;;6.70;47.20;;;;;;5017009;28;20851;-86
2021/04/04 08:16:35;;;;;;;7.03;6.27;;;7.10;46.90;;;;;;5017421;28;20474;-80
2021/04/04 08:19:01;;;;;;;9.30;6.03;;;7.00;46.40;;;;;;5026309;28;20550;-82
2021/04/04 08:21:34;;;;;;;9.57;5.90;;;7.10;46.30;;;;;;5017602;28;20514;-80
2021/04/04 08:24:06;;;;;;;6.73;5.40;;;7.30;46.50;;;;;;5014334;28;20454;-85
2021/04/04 08:26:38;;;;;;;8.00;5.60;;;7.10;46.00;;;;;;5019256;28;20457;-84
2021/04/04 08:29:08;;;;;;;7.10;5.80;;;7.30;46.20;;;;;;5018971;28;20477;-82
2021/04/04 08:31:39;;;;;;;7.17;5.70;;;7.40;45.60;;;;;;5026681;28;20465;-82
2021/04/04 08:34:11;;;;;;;6.20;4.63;;;7.70;45.50;;;;;;5024732;28;20546;-81
2021/04/04 08:36:42;;;;;;;6.60;5.37;;;7.60;44.90;;;;;;5021494;28;21081;-82
2021/04/04 08:39:12;;;;;;;11.57;5.93;;;7.40;44.80;;;;;;5011673;28;20496;-82
2021/04/04 08:41:40;;;;;;;8.53;5.50;;;7.70;45.10;;;;;;5018606;28;20479;-80
2021/04/04 08:44:14;;;;;;;11.90;5.80;;;7.60;45.00;;;;;;5014838;28;20447;-80
2021/04/04 08:46:46;;;;;;;11.60;5.90;;;7.60;44.80;;;;;;5012003;28;20450;-79
2021/04/04 08:49:14;;;;;;;9.70;6.20;;;7.80;44.60;;;;;;5010323;28;20900;-81
2021/04/04 08:51:43;;;;;;;12.33;5.77;;;8.10;44.40;;;;;;5020745;28;20459;-82
2021/04/04 08:54:15;;;;;;;8.13;6.17;;;8.40;44.30;;;;;;5017618;28;20536;-82
2021/04/04 08:56:43;;;;;;;9.03;6.43;;;8.60;43.90;;;;;;5012945;28;21071;-80
2021/04/04 08:59:10;;;;;;;7.90;5.63;;;8.40;43.50;;;;;;5011399;28;21012;-79
2021/04/04 09:01:38;;;;;;;7.70;4.87;;;8.50;43.50;;;;;;5014822;28;20530;-80
2021/04/04 09:04:08;;;;;;;9.00;5.10;;;8.60;43.60;;;;;;5009849;28;20816;-80
2021/04/04 09:06:37;;;;;;;6.80;5.53;;;8.80;43.50;;;;;;5004166;28;20527;-81
2021/04/04 09:09:15;;;;;;;7.50;4.33;;;8.60;43.40;;;;;;5005474;28;20471;-78
2021/04/04 09:11:44;;;;;;;5.30;3.83;;;9.00;43.30;;;;;;5004906;28;20538;-79
2021/04/04 09:14:12;;;;;;;3.07;2.77;;;8.90;41.60;;;;;;5022305;28;20451;-79
2021/04/04 09:16:38;;;;;;;4.83;4.00;;;8.80;40.30;;;;;;5019868;28;20451;-78
2021/04/04 09:19:05;;;;;;;9.20;5.20;;;8.60;41.30;;;;;;5000931;28;20452;-78
2021/04/04 09:21:37;;;;;;;8.47;5.53;;;9.00;42.40;;;;;;4998941;28;20459;-78
2021/04/04 09:24:05;;;;;;;10.03;5.20;;;9.00;42.90;;;;;;5001457;28;20467;-79
2021/04/04 09:26:36;;;;;;;6.70;4.83;;;8.90;42.70;;;;;;4986967;28;20496;-79
2021/04/04 09:29:03;;;;;;;8.07;4.90;;;9.00;42.40;;;;;;4987712;28;20529;-77
2021/04/04 09:31:33;;;;;;;7.10;5.23;;;9.10;42.40;;;;;;5012720;28;20468;-79
